Time,TemperatureF,DewpointF,PressureIn,WindDirection,WindDirectionDegrees,WindSpeedMPH,WindSpeedGustMPH,Humidity,HourlyPrecipIn,Conditions,Clouds,dailyrainin,SoftwareType,DateUTC
2013-03-26 00:05:00,27.4,19.0,30.46,NNW,343,0.0,1.0,72,0.00,,,0.00,weatherlink.com 1.10,2013-03-26 05:05:00,
2013-03-26 00:20:00,28.0,20.0,30.46,NNW,343,0.0,1.0,72,0.00,,,0.00,weatherlink.com 1.10,2013-03-26 05:20:00,
2013-03-26 00:35:00,29.2,20.0,30.46,NNW,343,0.0,2.0,69,0.00,,,0.00,weatherlink.com 1.10,2013-03-26 05:35:00,
2013-03-26 00:50:00,29.0,20.0,30.46,NNW,343,0.0,0.0,69,0.00,,,0.00,weatherlink.com 1.10,2013-03-26 05:50:00,
2013-03-26 01:05:00,28.1,20.0,30.47,NNW,343,0.0,0.0,71,0.00,,,0.00,weatherlink.com 1.10,2013-03-26 06:05:00,
2013-03-26 01:20:00,28.1,20.0,30.47,NNW,343,1.0,2.0,71,0.00,,,0.00,weatherlink.com 1.10,2013-03-26 06:20:00,
2013-03-26 01:35:00,28.9,20.0,30.47,NNW,343,2.0,2.0,69,0.00,,,0.00,weatherlink.com 1.10,2013-03-26 06:35:00,
2013-03-26 01:50:00,28.7,20.0,30.47,NNW,343,0.0,1.0,69,0.00,,,0.00,weatherlink.com 1.10,2013-03-26 06:50:00,
2013-03-26 02:05:00,28.6,20.0,30.47,NNW,342,1.0,4.0,70,0.00,,,0.00,weatherlink.com 1.10,2013-03-26 07:05:00,
2013-03-26 02:20:00,28.5,20.0,30.47,NNW,340,2.0,3.0,70,0.00,,,0.00,weatherlink.com 1.10,2013-03-26 07:20:00,
2013-03-26 02:35:00,28.6,20.0,30.47,NNW,340,0.0,2.0,70,0.00,,,0.00,weatherlink.com 1.10,2013-03-26 07:35:00,
2013-03-26 02:50:00,28.2,20.0,30.47,NNW,332,2.0,3.0,71,0.00,,,0.00,weatherlink.com 1.10,2013-03-26 07:50:00,
2013-03-26 03:05:00,28.1,20.0,30.47,NNW,327,2.0,4.0,71,0.00,,,0.00,weatherlink.com 1.10,2013-03-26 08:05:00,
2013-03-26 03:20:00,27.9,20.0,30.47,NW,323,2.0,4.0,71,0.00,,,0.00,weatherlink.com 1.10,2013-03-26 08:20:00,
2013-03-26 03:35:00,27.9,20.0,30.47,NW,325,0.0,4.0,72,0.00,,,0.00,weatherlink.com 1.10,2013-03-26 08:35:00,
2013-03-26 03:50:00,27.7,20.0,30.46,NW,324,3.0,3.0,72,0.00,,,0.00,weatherlink.com 1.10,2013-03-26 08:50:00,
2013-03-26 04:05:00,26.8,20.0,30.46,NW,324,2.0,2.0,74,0.00,,,0.00,weatherlink.com 1.10,2013-03-26 09:05:00,
2013-03-26 04:20:00,26.9,20.0,30.47,NW,325,1.0,4.0,75,0.00,,,0.00,weatherlink.com 1.10,2013-03-26 09:20:00,
2013-03-26 04:35:00,27.0,20.0,30.47,NW,324,2.0,3.0,75,0.00,,,0.00,weatherlink.com 1.10,2013-03-26 09:35:00,
2013-03-26 04:50:00,26.7,20.0,30.47,NW,324,1.0,3.0,76,0.00,,,0.00,weatherlink.com 1.10,2013-03-26 09:50:00,
2013-03-26 05:05:00,26.0,20.0,30.47,NW,324,0.0,1.0,77,0.00,,,0.00,weatherlink.com 1.10,2013-03-26 10:05:00,
2013-03-26 05:20:00,25.9,20.0,30.47,NW,324,1.0,3.0,78,0.00,,,0.00,weatherlink.com 1.10,2013-03-26 10:20:00,
2013-03-26 05:35:00,26.0,20.0,30.47,NW,324,1.0,2.0,78,0.00,,,0.00,weatherlink.com 1.10,2013-03-26 10:35:00,
2013-03-26 05:50:00,26.1,20.0,30.47,NW,315,3.0,5.0,77,0.00,,,0.00,weatherlink.com 1.10,2013-03-26 10:50:00,
2013-03-26 06:05:00,26.1,20.0,30.48,NW,319,3.0,5.0,77,0.00,,,0.00,weatherlink.com 1.10,2013-03-26 11:05:00,
2013-03-26 06:20:00,26.1,20.0,30.48,NW,322,3.0,5.0,77,0.00,,,0.00,weatherlink.com 1.10,2013-03-26 11:20:00,
2013-03-26 06:35:00,26.0,20.0,30.49,NW,311,2.0,5.0,77,0.00,,,0.00,weatherlink.com 1.10,2013-03-26 11:35:00,
2013-03-26 06:50:00,25.7,20.0,30.50,NW,310,0.0,2.0,78,0.00,,,0.00,weatherlink.com 1.10,2013-03-26 11:50:00,
2013-03-26 07:05:00,25.3,19.0,30.50,NW,310,0.0,2.0,78,0.00,,,0.00,weatherlink.com 1.10,2013-03-26 12:05:00,
2013-03-26 07:20:00,25.1,19.0,30.50,NW,310,0.0,2.0,79,0.00,,,0.00,weatherlink.com 1.10,2013-03-26 12:20:00,
2013-03-26 07:35:00,25.1,20.0,30.51,NW,310,1.0,3.0,80,0.00,,,0.00,weatherlink.com 1.10,2013-03-26 12:35:00,
2013-03-26 07:50:00,25.6,20.0,30.52,NW,310,0.0,2.0,80,0.00,,,0.00,weatherlink.com 1.10,2013-03-26 12:50:00,
2013-03-26 08:05:00,26.3,21.0,30.52,NW,310,2.0,3.0,80,0.00,,,0.00,weatherlink.com 1.10,2013-03-26 13:05:00,
2013-03-26 08:20:00,27.8,22.0,30.52,NW,325,3.0,7.0,79,0.00,,,0.00,weatherlink.com 1.10,2013-03-26 13:20:00,
2013-03-26 08:35:00,28.8,22.0,30.52,North,5,5.0,8.0,77,0.00,,,0.00,weatherlink.com 1.10,2013-03-26 13:35:00,
2013-03-26 08:50:00,29.2,23.0,30.52,NW,324,2.0,8.0,76,0.00,,,0.00,weatherlink.com 1.10,2013-03-26 13:50:00,
2013-03-26 09:05:00,30.4,23.0,30.53,NW,325,3.0,8.0,75,0.00,,,0.00,weatherlink.com 1.10,2013-03-26 14:05:00,
2013-03-26 09:21:00,31.3,23.0,30.54,NNW,327,7.0,9.0,71,0.00,,,0.00,weatherlink.com 1.10,2013-03-26 14:21:00,
2013-03-26 09:36:00,32.3,23.0,30.54,NW,321,1.0,7.0,68,0.00,,,0.00,weatherlink.com 1.10,2013-03-26 14:36:00,
2013-03-26 09:51:00,32.9,22.0,30.54,NNW,330,5.0,8.0,64,0.00,,,0.00,weatherlink.com 1.10,2013-03-26 14:51:00,
2013-03-26 10:06:00,33.4,22.0,30.54,North,355,3.0,8.0,62,0.00,,,0.00,weatherlink.com 1.10,2013-03-26 15:06:00,
2013-03-26 10:21:00,34.3,23.0,30.54,North,5,7.0,8.0,63,0.00,,,0.00,weatherlink.com 1.10,2013-03-26 15:21:00,
2013-03-26 10:36:00,35.3,23.0,30.54,WNW,297,4.0,9.0,62,0.00,,,0.00,weatherlink.com 1.10,2013-03-26 15:36:00,
2013-03-26 10:51:00,35.6,22.0,30.54,NW,311,6.0,11.0,59,0.00,,,0.00,weatherlink.com 1.10,2013-03-26 15:51:00,
2013-03-26 11:06:00,36.1,22.0,30.54,NW,305,8.0,13.0,57,0.00,,,0.00,weatherlink.com 1.10,2013-03-26 16:06:00,
2013-03-26 11:21:00,37.0,23.0,30.54,NW,306,4.0,12.0,57,0.00,,,0.00,weatherlink.com 1.10,2013-03-26 16:21:00,
2013-03-26 11:36:00,37.2,23.0,30.54,NNW,346,6.0,10.0,56,0.00,,,0.00,weatherlink.com 1.10,2013-03-26 16:36:00,
2013-03-26 12:21:00,38.8,22.0,30.52,WNW,299,6.0,10.0,52,0.00,,,0.00,weatherlink.com 1.10,2013-03-26 17:21:00,
2013-03-26 12:36:00,39.6,22.0,30.51,NNE,18,2.0,10.0,50,0.00,,,0.00,weatherlink.com 1.10,2013-03-26 17:36:00,
2013-03-26 12:51:00,40.0,22.0,30.51,North,11,5.0,11.0,48,0.00,,,0.00,weatherlink.com 1.10,2013-03-26 17:51:00,
2013-03-26 13:21:00,41.7,23.0,30.49,North,360,3.0,8.0,47,0.00,,,0.00,weatherlink.com 1.10,2013-03-26 18:21:00,
2013-03-26 13:36:00,41.9,23.0,30.49,WNW,284,3.0,13.0,47,0.00,,,0.00,weatherlink.com 1.10,2013-03-26 18:36:00,
2013-03-26 14:21:00,44.1,22.0,30.47,NNE,25,6.0,8.0,42,0.00,,,0.00,weatherlink.com 1.10,2013-03-26 19:21:00,
2013-03-26 14:51:00,45.0,21.0,30.45,West,275,0.0,7.0,39,0.00,,,0.00,weatherlink.com 1.10,2013-03-26 19:51:00,
2013-03-26 15:06:00,45.5,21.0,30.45,WSW,244,5.0,14.0,38,0.00,,,0.00,weatherlink.com 1.10,2013-03-26 20:06:00,
2013-03-26 15:21:00,45.7,20.0,30.44,West,261,0.0,8.0,36,0.00,,,0.00,weatherlink.com 1.10,2013-03-26 20:21:00,
2013-03-26 15:36:00,46.2,22.0,30.43,NNE,32,3.0,8.0,38,0.00,,,0.00,weatherlink.com 1.10,2013-03-26 20:36:00,
2013-03-26 15:51:00,47.6,22.0,30.42,WNW,293,7.0,12.0,36,0.00,,,0.00,weatherlink.com 1.10,2013-03-26 20:51:00,
2013-03-26 16:06:00,47.1,21.0,30.41,NNE,19,4.0,7.0,35,0.00,,,0.00,weatherlink.com 1.10,2013-03-26 21:06:00,
2013-03-26 16:21:00,47.7,21.0,30.40,North,360,3.0,7.0,35,0.00,,,0.00,weatherlink.com 1.10,2013-03-26 21:21:00,
2013-03-26 16:36:00,48.3,21.0,30.40,SW,223,3.0,8.0,34,0.00,,,0.00,weatherlink.com 1.10,2013-03-26 21:36:00,
2013-03-26 16:51:00,48.7,21.0,30.40,WNW,286,6.0,8.0,33,0.00,,,0.00,weatherlink.com 1.10,2013-03-26 21:51:00,
2013-03-26 17:06:00,49.3,22.0,30.39,WSW,239,2.0,8.0,34,0.00,,,0.00,weatherlink.com 1.10,2013-03-26 22:06:00,
2013-03-26 17:21:00,49.6,23.0,30.38,SSE,164,5.0,8.0,35,0.00,,,0.00,weatherlink.com 1.10,2013-03-26 22:21:00,
2013-03-26 17:36:00,49.4,21.0,30.38,SW,229,1.0,8.0,33,0.00,,,0.00,weatherlink.com 1.10,2013-03-26 22:36:00,
2013-03-26 17:51:00,50.0,22.0,30.37,SSW,213,5.0,7.0,34,0.00,,,0.00,weatherlink.com 1.10,2013-03-26 22:51:00,
2013-03-26 18:06:00,49.9,22.0,30.37,SSE,167,4.0,8.0,34,0.00,,,0.00,weatherlink.com 1.10,2013-03-26 23:06:00,
2013-03-26 18:21:00,49.3,22.0,30.37,SE,136,9.0,9.0,34,0.00,,,0.00,weatherlink.com 1.10,2013-03-26 23:21:00,
2013-03-26 18:37:00,48.9,22.0,30.37,SE,145,4.0,10.0,35,0.00,,,0.00,weatherlink.com 1.10,2013-03-26 23:37:00,
2013-03-26 18:52:00,49.0,22.0,30.36,SSE,159,5.0,5.0,34,0.00,,,0.00,weatherlink.com 1.10,2013-03-26 23:52:00,
2013-03-26 19:07:00,48.7,23.0,30.36,SE,126,1.0,5.0,36,0.00,,,0.00,weatherlink.com 1.10,2013-03-27 00:07:00,
2013-03-26 19:22:00,47.6,23.0,30.36,SE,126,2.0,4.0,38,0.00,,,0.00,weatherlink.com 1.10,2013-03-27 00:22:00,
2013-03-26 19:37:00,45.9,24.0,30.36,ESE,122,3.0,10.0,42,0.00,,,0.00,weatherlink.com 1.10,2013-03-27 00:37:00,
2013-03-26 19:52:00,44.2,24.0,30.36,SE,133,3.0,7.0,46,0.00,,,0.00,weatherlink.com 1.10,2013-03-27 00:52:00,
2013-03-26 20:07:00,42.9,24.0,30.36,SE,131,0.0,3.0,48,0.00,,,0.00,weatherlink.com 1.10,2013-03-27 01:07:00,
2013-03-26 20:22:00,41.5,25.0,30.36,SE,131,0.0,2.0,52,0.00,,,0.00,weatherlink.com 1.10,2013-03-27 01:22:00,
2013-03-26 20:37:00,40.9,24.0,30.36,SE,131,0.0,2.0,52,0.00,,,0.00,weatherlink.com 1.10,2013-03-27 01:37:00,
2013-03-26 20:52:00,40.5,24.0,30.37,SE,132,0.0,2.0,53,0.00,,,0.00,weatherlink.com 1.10,2013-03-27 01:52:00,
2013-03-26 21:07:00,40.2,24.0,30.37,SE,132,1.0,4.0,53,0.00,,,0.00,weatherlink.com 1.10,2013-03-27 02:07:00,
2013-03-26 21:22:00,39.5,25.0,30.37,SE,132,0.0,1.0,56,0.00,,,0.00,weatherlink.com 1.10,2013-03-27 02:22:00,
2013-03-26 21:37:00,39.5,24.0,30.37,SE,132,0.0,1.0,55,0.00,,,0.00,weatherlink.com 1.10,2013-03-27 02:37:00,
2013-03-26 21:52:00,38.1,25.0,30.37,SE,132,0.0,1.0,59,0.00,,,0.00,weatherlink.com 1.10,2013-03-27 02:52:00,
2013-03-26 22:07:00,36.8,25.0,30.38,SE,132,0.0,0.0,63,0.00,,,0.00,weatherlink.com 1.10,2013-03-27 03:07:00,
2013-03-26 22:22:00,36.4,25.0,30.37,SE,132,0.0,0.0,64,0.00,,,0.00,weatherlink.com 1.10,2013-03-27 03:22:00,
2013-03-26 22:37:00,37.7,24.0,30.37,SE,132,0.0,4.0,59,0.00,,,0.00,weatherlink.com 1.10,2013-03-27 03:37:00,
2013-03-26 22:52:00,37.8,25.0,30.37,SE,132,1.0,2.0,60,0.00,,,0.00,weatherlink.com 1.10,2013-03-27 03:52:00,
2013-03-26 23:07:00,38.5,24.0,30.36,SE,138,3.0,3.0,57,0.00,,,0.00,weatherlink.com 1.10,2013-03-27 04:07:00,
2013-03-26 23:22:00,37.7,24.0,30.36,SE,138,0.0,3.0,59,0.00,,,0.00,weatherlink.com 1.10,2013-03-27 04:22:00,
2013-03-26 23:37:00,37.2,25.0,30.37,SE,144,0.0,4.0,61,0.00,,,0.00,weatherlink.com 1.10,2013-03-27 04:37:00,
2013-03-26 23:52:00,37.1,25.0,30.37,SE,145,3.0,4.0,62,0.00,,,0.00,weatherlink.com 1.10,2013-03-27 04:52:00,